Time;durP1;ratioP1;P1;durP2;ratioP2;P2;SDS_P1;SDS_P2;PMS_P1;PMS_P2;Temp;Humidity;BMP_temperature;BMP_pressure;BME280_temperature;BME280_humidity;BME280_pressure;Samples;Min_cycle;Max_cycle;Signal;HPM_P1;HPM_P2
2024/04/08 00:01:35;;;;;;;6.23;2.63;;;15.10;98.40;;;;;;484295;245;29012;-73
2024/04/08 00:03:36;;;;;;;9.20;2.10;;;15.20;98.10;;;;;;484306;245;28867;-74
2024/04/08 00:05:37;;;;;;;8.10;2.90;;;15.30;98.00;;;;;;484323;245;29019;-74
2024/04/08 00:07:38;;;;;;;13.57;2.50;;;15.30;97.70;;;;;;484316;245;28806;-73
2024/04/08 00:09:40;;;;;;;4.80;2.70;;;15.30;97.10;;;;;;484293;245;28891;-74
2024/04/08 00:11:41;;;;;;;20.03;2.80;;;15.40;96.60;;;;;;484321;245;28877;-75
2024/04/08 00:13:42;;;;;;;7.50;2.53;;;15.80;94.30;;;;;;484311;245;28877;-74
2024/04/08 00:15:43;;;;;;;13.43;2.50;;;16.20;92.80;;;;;;484304;245;29312;-74
2024/04/08 00:17:45;;;;;;;15.90;2.50;;;16.50;90.90;;;;;;484290;245;29350;-73
2024/04/08 00:19:46;;;;;;;6.30;2.13;;;16.70;90.60;;;;;;484291;245;29328;-72
2024/04/08 00:21:47;;;;;;;7.43;1.70;;;16.90;90.10;;;;;;484320;245;28858;-75
2024/04/08 00:23:48;;;;;;;7.13;2.27;;;16.90;90.10;;;;;;484301;245;28827;-73
2024/04/08 00:25:50;;;;;;;6.00;2.33;;;16.80;89.70;;;;;;484299;245;28840;-73
2024/04/08 00:27:51;;;;;;;6.00;2.20;;;16.90;89.20;;;;;;484299;245;28797;-74
2024/04/08 00:29:52;;;;;;;4.43;1.73;;;16.90;89.60;;;;;;484286;245;28864;-71
2024/04/08 00:31:53;;;;;;;14.63;2.13;;;16.90;88.30;;;;;;484319;245;28916;-74
2024/04/08 00:33:55;;;;;;;3.90;1.93;;;17.10;87.60;;;;;;484307;245;28861;-72
2024/04/08 00:35:56;;;;;;;5.87;1.73;;;17.10;87.00;;;;;;484294;245;28861;-71
2024/04/08 00:37:57;;;;;;;7.17;2.30;;;17.10;86.70;;;;;;484234;245;29803;-74
2024/04/08 00:39:58;;;;;;;5.20;2.00;;;17.30;84.60;;;;;;484343;245;29261;-74
2024/04/08 00:42:00;;;;;;;7.00;2.20;;;17.20;85.30;;;;;;484324;245;29354;-74
2024/04/08 00:44:01;;;;;;;8.17;1.90;;;17.30;83.90;;;;;;484341;245;29283;-73
2024/04/08 00:46:02;;;;;;;8.50;1.97;;;17.30;83.10;;;;;;484300;245;28853;-74
2024/04/08 00:48:03;;;;;;;6.37;2.37;;;17.30;83.30;;;;;;484312;245;28863;-73
2024/04/08 00:50:05;;;;;;;6.30;1.53;;;17.20;84.10;;;;;;484320;245;28805;-73
2024/04/08 00:52:06;;;;;;;4.40;1.93;;;17.10;84.10;;;;;;484298;245;28847;-73
2024/04/08 00:54:07;;;;;;;9.30;2.40;;;17.10;83.70;;;;;;484285;245;28906;-74
2024/04/08 00:56:08;;;;;;;4.30;1.93;;;17.20;83.60;;;;;;484312;245;28874;-72
2024/04/08 00:58:10;;;;;;;4.57;2.00;;;17.10;84.00;;;;;;484346;245;28990;-76
2024/04/08 01:00:11;;;;;;;5.47;1.70;;;17.00;84.10;;;;;;484301;245;28901;-74
2024/04/08 01:02:12;;;;;;;5.97;1.73;;;17.10;83.60;;;;;;484287;245;29332;-74
2024/04/08 01:04:14;;;;;;;13.30;2.23;;;17.00;84.40;;;;;;484238;245;29362;-74
2024/04/08 01:06:15;;;;;;;5.93;1.90;;;17.00;83.90;;;;;;484232;245;29307;-74
2024/04/08 01:08:16;;;;;;;7.77;2.00;;;17.10;83.70;;;;;;484327;245;28896;-74
2024/04/08 01:10:17;;;;;;;10.80;2.50;;;17.10;84.60;;;;;;484302;245;28899;-71
2024/04/08 01:12:18;;;;;;;3.13;1.77;;;17.10;84.60;;;;;;484302;245;28922;-73
2024/04/08 01:14:20;;;;;;;6.20;2.07;;;17.00;85.10;;;;;;484284;245;28922;-72
2024/04/08 01:16:21;;;;;;;11.80;1.80;;;17.00;85.10;;;;;;484325;245;29307;-74
2024/04/08 01:18:22;;;;;;;4.03;1.90;;;17.00;85.80;;;;;;484317;245;28883;-72
2024/04/08 01:20:23;;;;;;;5.17;1.87;;;17.00;85.80;;;;;;484301;245;28818;-71
2024/04/08 01:22:30;;;;;;;6.93;2.60;;;16.90;85.80;;;;;;484278;245;28884;-72
2024/04/08 01:24:26;;;;;;;4.30;1.50;;;16.90;85.00;;;;;;483975;245;29471;-74
2024/04/08 01:26:27;;;;;;;4.70;1.70;;;16.90;85.70;;;;;;484216;245;29271;-71
2024/04/08 01:28:28;;;;;;;9.17;2.30;;;16.90;85.40;;;;;;484342;245;29342;-74
2024/04/08 01:30:30;;;;;;;3.10;1.53;;;16.90;85.20;;;;;;484334;245;29379;-73
2024/04/08 01:32:31;;;;;;;6.53;1.80;;;17.00;85.00;;;;;;484322;245;28850;-73
2024/04/08 01:34:32;;;;;;;5.53;1.73;;;16.90;85.00;;;;;;484349;245;28975;-73
2024/04/08 01:36:33;;;;;;;12.07;1.93;;;17.00;87.00;;;;;;484316;245;28814;-73
2024/04/08 01:38:39;;;;;;;10.73;2.50;;;17.00;88.30;;;;;;484309;245;28929;-73
2024/04/08 01:40:36;;;;;;;6.00;2.07;;;16.90;88.40;;;;;;484085;245;28831;-73
2024/04/08 01:42:37;;;;;;;6.00;2.27;;;16.90;88.00;;;;;;484328;245;28919;-72
2024/04/08 01:44:38;;;;;;;11.23;2.00;;;16.90;88.10;;;;;;484316;245;28961;-74
2024/04/08 01:46:40;;;;;;;7.73;2.10;;;16.90;87.70;;;;;;484308;245;28931;-74
2024/04/08 01:48:41;;;;;;;10.40;2.63;;;16.90;87.30;;;;;;484289;245;29431;-74
2024/04/08 01:50:42;;;;;;;3.80;1.70;;;16.90;87.50;;;;;;484314;245;30106;-73
2024/04/08 01:52:43;;;;;;;5.20;1.80;;;16.90;87.80;;;;;;484317;245;29347;-73
2024/04/08 01:54:45;;;;;;;3.63;1.90;;;16.90;86.90;;;;;;484298;245;28944;-74
2024/04/08 01:56:47;;;;;;;4.57;2.13;;;16.80;87.50;;;;;;484247;245;28828;-73
2024/04/08 01:58:47;;;;;;;6.90;2.53;;;16.80;87.10;;;;;;484277;245;28841;-73
2024/04/08 02:00:48;;;;;;;8.47;1.80;;;16.80;87.90;;;;;;484301;245;28860;-75
2024/04/08 02:02:50;;;;;;;8.07;1.97;;;16.70;87.50;;;;;;484304;245;28818;-74
2024/04/08 02:04:51;;;;;;;14.83;1.97;;;16.70;87.00;;;;;;484296;245;28854;-74
2024/04/08 02:06:52;;;;;;;5.70;2.10;;;16.70;86.70;;;;;;484274;245;28972;-73
2024/04/08 02:08:53;;;;;;;6.07;2.10;;;16.70;86.40;;;;;;484286;245;28845;-73
2024/04/08 02:10:55;;;;;;;4.00;2.17;;;16.70;86.60;;;;;;484322;245;29331;-75
2024/04/08 02:12:56;;;;;;;3.30;1.90;;;16.70;86.70;;;;;;484318;245;29345;-74
2024/04/08 02:14:57;;;;;;;5.10;1.90;;;16.60;86.40;;;;;;484298;245;29326;-74
2024/04/08 02:16:58;;;;;;;4.17;1.83;;;16.60;86.30;;;;;;484320;245;29303;-72
2024/04/08 02:19:00;;;;;;;10.50;1.93;;;16.60;86.80;;;;;;484345;245;28798;-73
2024/04/08 02:21:01;;;;;;;6.77;1.80;;;16.60;85.60;;;;;;484344;245;28859;-72
2024/04/08 02:23:02;;;;;;;7.13;1.60;;;16.70;85.20;;;;;;484296;242;28853;-74
2024/04/08 02:25:03;;;;;;;6.70;2.20;;;16.70;84.80;;;;;;484310;245;28888;-74
2024/04/08 02:27:05;;;;;;;7.60;1.93;;;16.70;84.70;;;;;;484337;245;29317;-74
2024/04/08 02:29:06;;;;;;;4.67;1.70;;;16.80;84.00;;;;;;484352;245;28806;-72
2024/04/08 02:31:07;;;;;;;5.50;1.90;;;16.80;83.90;;;;;;484288;245;28884;-74
2024/04/08 02:33:08;;;;;;;5.17;1.87;;;16.80;84.20;;;;;;484318;245;28803;-72
2024/04/08 02:35:10;;;;;;;7.63;1.70;;;16.90;84.00;;;;;;484321;245;29372;-72
2024/04/08 02:37:11;;;;;;;4.53;1.70;;;16.80;84.00;;;;;;484339;245;29458;-73
2024/04/08 02:39:12;;;;;;;5.43;2.10;;;16.80;83.90;;;;;;484324;245;29330;-71
2024/04/08 02:41:13;;;;;;;3.23;1.80;;;16.80;85.20;;;;;;484308;245;29354;-72
2024/04/08 02:43:15;;;;;;;4.43;1.97;;;16.70;85.70;;;;;;484305;245;28887;-73
2024/04/08 02:45:16;;;;;;;8.33;2.10;;;16.70;85.00;;;;;;484314;245;28832;-73
2024/04/08 02:47:17;;;;;;;4.70;1.60;;;16.60;85.50;;;;;;484322;245;28962;-74
2024/04/08 02:49:18;;;;;;;4.90;1.87;;;16.60;85.70;;;;;;484322;245;28838;-74
2024/04/08 02:51:20;;;;;;;12.60;2.17;;;16.60;85.80;;;;;;484301;245;28882;-74
2024/04/08 02:53:21;;;;;;;6.37;1.90;;;16.60;85.10;;;;;;484301;245;28841;-73
2024/04/08 02:55:22;;;;;;;5.37;2.00;;;16.60;85.10;;;;;;484341;245;28907;-73
2024/04/08 02:57:24;;;;;;;10.63;2.93;;;16.60;85.10;;;;;;484306;245;28937;-73
2024/04/08 02:59:25;;;;;;;6.30;1.90;;;16.60;84.70;;;;;;484298;245;29270;-72
2024/04/08 03:01:26;;;;;;;3.37;1.60;;;16.60;84.80;;;;;;484270;245;29352;-73
2024/04/08 03:03:27;;;;;;;4.73;1.83;;;16.60;85.10;;;;;;484319;245;29593;-75
2024/04/08 03:05:29;;;;;;;7.63;1.97;;;16.50;85.10;;;;;;484318;245;28800;-72
2024/04/08 03:07:30;;;;;;;4.93;1.67;;;16.50;84.90;;;;;;484315;245;28846;-74
2024/04/08 03:09:31;;;;;;;6.00;1.90;;;16.60;84.70;;;;;;484298;245;28802;-73
2024/04/08 03:11:32;;;;;;;9.20;2.77;;;16.60;84.80;;;;;;484315;245;28863;-73
2024/04/08 03:13:34;;;;;;;7.47;1.87;;;16.60;84.50;;;;;;484323;245;28878;-75
2024/04/08 03:15:35;;;;;;;13.53;2.30;;;16.60;85.60;;;;;;484306;245;28818;-73
2024/04/08 03:17:36;;;;;;;6.30;2.00;;;16.50;84.80;;;;;;484317;245;28905;-73
2024/04/08 03:19:37;;;;;;;7.03;1.80;;;16.50;84.70;;;;;;484294;245;28804;-74
2024/04/08 03:21:39;;;;;;;3.20;1.90;;;16.50;83.70;;;;;;484317;245;28948;-74
2024/04/08 03:23:40;;;;;;;5.60;2.57;;;16.60;83.90;;;;;;484203;245;29297;-75
2024/04/08 03:25:41;;;;;;;3.00;1.80;;;16.60;83.40;;;;;;484181;245;29282;-74
2024/04/08 03:27:45;;;;;;;13.63;2.50;;;16.50;84.50;;;;;;484302;245;29339;-73
2024/04/08 03:29:44;;;;;;;4.87;2.13;;;16.60;83.80;;;;;;484175;245;28871;-73
2024/04/08 03:31:45;;;;;;;7.50;1.90;;;16.60;83.90;;;;;;484332;245;28888;-74
2024/04/08 03:33:46;;;;;;;8.00;2.10;;;16.50;84.60;;;;;;484201;245;28846;-73
2024/04/08 03:35:47;;;;;;;5.10;2.13;;;16.40;84.40;;;;;;484310;245;28799;-73
2024/04/08 03:37:49;;;;;;;8.50;1.77;;;16.30;84.50;;;;;;484311;245;28848;-74
2024/04/08 03:39:50;;;;;;;4.90;2.17;;;16.30;85.00;;;;;;484344;245;29245;-75
2024/04/08 03:41:53;;;;;;;9.27;2.40;;;16.20;85.30;;;;;;484304;245;28915;-71
2024/04/08 03:43:52;;;;;;;4.90;1.70;;;16.30;84.60;;;;;;484219;245;28884;-72
2024/04/08 03:45:54;;;;;;;4.33;1.63;;;16.30;84.40;;;;;;484334;245;29305;-72
2024/04/08 03:47:55;;;;;;;4.50;1.80;;;16.20;85.10;;;;;;484318;245;29274;-71
2024/04/08 03:49:56;;;;;;;7.30;2.00;;;16.20;84.90;;;;;;484331;245;29414;-74
2024/04/08 03:51:57;;;;;;;6.90;1.93;;;16.20;84.70;;;;;;484316;245;29291;-73
2024/04/08 03:53:59;;;;;;;7.30;1.70;;;16.10;85.40;;;;;;484288;245;28846;-73
2024/04/08 03:56:00;;;;;;;9.87;2.40;;;16.10;85.40;;;;;;484301;245;28884;-73
2024/04/08 03:58:01;;;;;;;6.13;1.97;;;16.10;85.60;;;;;;484311;245;28838;-73
2024/04/08 04:00:03;;;;;;;2.70;1.60;;;16.10;86.00;;;;;;484336;245;28865;-73
2024/04/08 04:02:04;;;;;;;3.43;1.57;;;16.00;85.70;;;;;;484302;242;28871;-72
2024/04/08 04:04:05;;;;;;;4.67;2.73;;;16.00;86.10;;;;;;484301;245;28865;-73
2024/04/08 04:06:06;;;;;;;6.90;1.97;;;15.90;86.30;;;;;;484322;245;28927;-76
2024/04/08 04:08:07;;;;;;;3.83;1.47;;;15.90;86.10;;;;;;484367;245;28812;-72
2024/04/08 04:10:09;;;;;;;6.67;1.80;;;15.90;86.30;;;;;;484358;245;28844;-73
2024/04/08 04:12:10;;;;;;;9.43;2.30;;;15.90;86.00;;;;;;484132;245;29264;-73
2024/04/08 04:14:11;;;;;;;4.93;1.40;;;15.90;85.90;;;;;;484215;245;29328;-74
2024/04/08 04:16:12;;;;;;;8.63;2.00;;;15.90;86.20;;;;;;484361;245;29352;-74
2024/04/08 04:18:14;;;;;;;2.83;1.57;;;15.90;86.40;;;;;;484351;245;28912;-73
2024/04/08 04:20:15;;;;;;;3.97;1.87;;;15.80;86.50;;;;;;484338;245;28936;-74
2024/04/08 04:22:16;;;;;;;6.00;2.10;;;15.70;87.00;;;;;;484339;245;28900;-73
2024/04/08 04:24:17;;;;;;;7.53;2.10;;;15.70;87.40;;;;;;484338;245;28917;-71
2024/04/08 04:26:19;;;;;;;5.27;1.90;;;15.60;88.30;;;;;;484331;245;28864;-74
2024/04/08 04:28:20;;;;;;;4.60;2.33;;;15.40;89.00;;;;;;484206;245;28926;-72
2024/04/08 04:30:21;;;;;;;19.33;2.00;;;15.30;89.30;;;;;;484320;245;28865;-72
2024/04/08 04:32:22;;;;;;;6.07;2.10;;;15.30;89.40;;;;;;484336;245;28948;-72
2024/04/08 04:34:24;;;;;;;12.50;2.23;;;15.20;89.80;;;;;;484341;245;28822;-72
2024/04/08 04:36:25;;;;;;;6.00;2.00;;;15.20;89.80;;;;;;484320;245;29384;-74
2024/04/08 04:38:26;;;;;;;5.37;1.93;;;15.10;90.00;;;;;;484299;245;29255;-73
2024/04/08 04:40:28;;;;;;;3.63;1.93;;;15.10;90.10;;;;;;484291;245;29418;-72
2024/04/08 04:42:29;;;;;;;3.63;1.80;;;15.10;90.20;;;;;;484301;245;28903;-74
2024/04/08 04:44:30;;;;;;;6.83;2.10;;;15.10;90.30;;;;;;484280;245;28805;-72
2024/04/08 04:46:31;;;;;;;10.77;2.10;;;15.10;90.10;;;;;;484308;245;28961;-74
2024/04/08 04:48:32;;;;;;;8.30;2.20;;;15.00;90.30;;;;;;484094;245;28938;-74
2024/04/08 04:50:34;;;;;;;8.57;2.43;;;15.00;90.50;;;;;;484294;245;28864;-74
2024/04/08 04:52:35;;;;;;;4.33;1.63;;;15.00;90.60;;;;;;484324;245;28931;-75
2024/04/08 04:54:36;;;;;;;7.90;2.20;;;14.90;90.50;;;;;;484325;245;28793;-73
2024/04/08 04:56:37;;;;;;;6.30;2.13;;;14.90;90.50;;;;;;484290;245;28867;-74
2024/04/08 04:58:39;;;;;;;4.60;2.00;;;14.90;90.40;;;;;;484311;245;29340;-74
2024/04/08 05:00:40;;;;;;;9.50;2.37;;;15.00;90.10;;;;;;484312;245;29264;-73
2024/04/08 05:02:42;;;;;;;5.07;1.90;;;14.90;90.40;;;;;;484304;245;29327;-73
2024/04/08 05:04:42;;;;;;;6.10;2.20;;;14.90;90.60;;;;;;484285;245;29431;-72
2024/04/08 05:06:44;;;;;;;4.03;2.23;;;14.90;90.80;;;;;;484300;245;28881;-72
2024/04/08 05:08:45;;;;;;;4.00;1.97;;;14.90;90.80;;;;;;484308;245;28861;-74
2024/04/08 05:10:46;;;;;;;5.47;1.57;;;14.80;90.70;;;;;;484307;245;28797;-72
2024/04/08 05:12:47;;;;;;;3.60;1.60;;;14.80;90.50;;;;;;484304;245;28938;-75
2024/04/08 05:14:49;;;;;;;2.93;2.00;;;14.90;90.70;;;;;;484309;245;28807;-73
2024/04/08 05:16:50;;;;;;;6.23;2.00;;;14.90;90.70;;;;;;484279;245;28859;-72
2024/04/08 05:18:51;;;;;;;13.60;2.10;;;14.90;90.80;;;;;;484327;245;29307;-76
2024/04/08 05:20:52;;;;;;;8.70;2.27;;;14.90;90.80;;;;;;484306;245;28881;-74
2024/04/08 05:22:54;;;;;;;5.50;2.00;;;14.90;90.80;;;;;;484258;245;29301;-73
2024/04/08 05:24:55;;;;;;;3.37;1.90;;;14.90;90.90;;;;;;484263;245;29324;-74
2024/04/08 05:26:56;;;;;;;4.00;1.80;;;14.90;90.90;;;;;;484260;245;29462;-74
2024/04/08 05:28:57;;;;;;;9.77;1.80;;;14.90;90.80;;;;;;484316;245;29309;-74
2024/04/08 05:30:59;;;;;;;5.60;1.90;;;14.90;91.00;;;;;;484227;245;28806;-71
2024/04/08 05:33:01;;;;;;;8.93;2.00;;;14.90;91.10;;;;;;484218;245;28867;-72
2024/04/08 05:35:01;;;;;;;9.50;3.27;;;14.90;91.10;;;;;;484133;245;28896;-74
2024/04/08 05:37:02;;;;;;;6.60;2.37;;;15.00;90.80;;;;;;484265;245;28937;-73
2024/04/08 05:39:04;;;;;;;5.70;1.97;;;15.00;90.90;;;;;;484264;245;28957;-72
2024/04/08 05:41:05;;;;;;;10.83;2.50;;;15.10;90.30;;;;;;484247;245;28905;-73
2024/04/08 05:43:06;;;;;;;4.33;1.80;;;15.10;90.20;;;;;;484238;245;28976;-74
2024/04/08 05:45:08;;;;;;;2.10;1.60;;;15.20;90.30;;;;;;484291;245;28833;-76
2024/04/08 05:47:09;;;;;;;2.80;2.00;;;15.10;90.70;;;;;;484293;245;29268;-73
2024/04/08 05:49:10;;;;;;;6.47;2.40;;;15.10;90.80;;;;;;484320;245;29322;-74
2024/04/08 05:51:11;;;;;;;5.73;2.10;;;15.10;90.70;;;;;;484309;245;29286;-73
2024/04/08 05:53:12;;;;;;;4.57;1.53;;;15.20;91.30;;;;;;484288;245;28997;-74
2024/04/08 05:55:14;;;;;;;2.27;1.77;;;15.20;91.10;;;;;;484347;245;28852;-75
2024/04/08 05:57:15;;;;;;;4.33;1.90;;;15.30;90.60;;;;;;484302;245;28805;-74
2024/04/08 05:59:16;;;;;;;4.07;1.80;;;15.30;90.50;;;;;;484327;245;28857;-74
2024/04/08 06:01:17;;;;;;;7.23;2.30;;;15.40;90.50;;;;;;484247;245;28804;-73
2024/04/08 06:03:19;;;;;;;4.73;2.00;;;15.50;90.60;;;;;;484306;245;28941;-74
2024/04/08 06:05:20;;;;;;;9.93;2.80;;;15.60;90.40;;;;;;484374;245;28938;-74
2024/04/08 06:07:21;;;;;;;8.50;2.10;;;15.60;90.40;;;;;;484357;245;28823;-73
2024/04/08 06:09:22;;;;;;;4.87;1.90;;;15.60;90.50;;;;;;484303;245;28995;-72
2024/04/08 06:11:24;;;;;;;10.17;2.53;;;15.60;90.70;;;;;;484307;245;30445;-71
2024/04/08 06:13:27;;;;;;;7.17;2.57;;;15.70;90.60;;;;;;484324;245;29343;-71
2024/04/08 06:15:26;;;;;;;4.23;2.30;;;15.70;90.40;;;;;;484213;245;29394;-72
2024/04/08 06:17:27;;;;;;;6.83;2.17;;;15.80;90.50;;;;;;484321;245;28809;-72
2024/04/08 06:19:29;;;;;;;1.70;1.60;;;15.80;90.70;;;;;;484310;245;28952;-71
2024/04/08 06:21:30;;;;;;;8.70;2.03;;;15.80;90.80;;;;;;484321;245;28867;-75
2024/04/08 06:23:31;;;;;;;4.67;2.23;;;15.80;90.40;;;;;;484317;245;28908;-74
2024/04/08 06:25:32;;;;;;;4.27;2.33;;;15.90;90.20;;;;;;484335;245;28845;-74
2024/04/08 06:27:34;;;;;;;6.47;2.30;;;16.00;90.10;;;;;;484302;245;28886;-74
2024/04/08 06:29:35;;;;;;;5.50;2.00;;;16.10;90.30;;;;;;484318;245;28925;-74
2024/04/08 06:31:36;;;;;;;6.93;2.13;;;16.10;90.00;;;;;;484343;245;29463;-75
2024/04/08 06:33:37;;;;;;;7.20;2.20;;;16.20;90.10;;;;;;484336;245;28817;-74
2024/04/08 06:35:39;;;;;;;5.33;2.03;;;16.20;90.00;;;;;;484329;245;29345;-74
2024/04/08 06:37:40;;;;;;;6.53;2.40;;;16.20;90.20;;;;;;484310;245;29269;-74
2024/04/08 06:39:41;;;;;;;4.17;2.00;;;16.40;89.60;;;;;;484332;245;29294;-74
2024/04/08 06:41:42;;;;;;;5.40;2.10;;;16.50;89.10;;;;;;484354;245;29324;-73
2024/04/08 06:43:44;;;;;;;4.60;1.90;;;16.50;90.10;;;;;;484320;245;28829;-72
2024/04/08 06:45:45;;;;;;;7.30;1.83;;;16.50;89.30;;;;;;484216;245;28837;-72
2024/04/08 06:47:46;;;;;;;5.50;1.70;;;16.60;88.90;;;;;;484337;245;28817;-72
2024/04/08 06:49:48;;;;;;;4.33;2.00;;;16.60;89.20;;;;;;484365;245;28837;-71
2024/04/08 06:51:49;;;;;;;6.27;2.20;;;16.80;88.80;;;;;;484377;245;28845;-73
2024/04/08 06:53:50;;;;;;;9.60;2.13;;;17.00;88.40;;;;;;484334;245;28858;-73
2024/04/08 06:55:51;;;;;;;8.40;2.70;;;17.20;87.20;;;;;;484331;245;28847;-74
2024/04/08 06:57:53;;;;;;;6.67;2.10;;;17.20;87.10;;;;;;484288;245;28896;-75
2024/04/08 06:59:54;;;;;;;5.67;1.90;;;17.20;87.90;;;;;;484358;245;29336;-73
2024/04/08 07:01:55;;;;;;;10.47;2.50;;;17.20;87.90;;;;;;484328;245;29317;-73
2024/04/08 07:03:56;;;;;;;6.53;1.90;;;17.20;87.20;;;;;;484307;245;29257;-74
2024/04/08 07:05:58;;;;;;;7.00;1.97;;;17.20;87.30;;;;;;484305;245;29418;-73
2024/04/08 07:07:59;;;;;;;5.90;1.93;;;17.20;87.90;;;;;;484295;245;28848;-73
2024/04/08 07:10:00;;;;;;;14.97;3.07;;;17.20;86.80;;;;;;484288;245;28829;-73
2024/04/08 07:12:02;;;;;;;3.67;2.10;;;17.30;86.90;;;;;;484302;245;28843;-74
2024/04/08 07:14:03;;;;;;;5.60;1.83;;;17.30;88.00;;;;;;484186;245;28923;-73
2024/04/08 07:16:04;;;;;;;6.07;2.30;;;17.40;87.50;;;;;;484336;245;28885;-73
2024/04/08 07:18:05;;;;;;;7.37;2.30;;;17.40;88.40;;;;;;484303;245;28849;-75
2024/04/08 07:20:06;;;;;;;10.40;2.37;;;17.50;88.90;;;;;;484320;245;28968;-73
2024/04/08 07:22:08;;;;;;;8.80;2.77;;;17.50;89.10;;;;;;484292;245;29334;-74
2024/04/08 07:24:09;;;;;;;10.80;2.83;;;17.50;88.90;;;;;;484180;245;29428;-74
2024/04/08 07:26:10;;;;;;;12.73;2.30;;;17.60;88.10;;;;;;484331;245;28813;-73
2024/04/08 07:28:11;;;;;;;5.43;2.40;;;17.60;89.70;;;;;;484195;245;28841;-74
2024/04/08 07:30:13;;;;;;;7.70;2.47;;;17.60;89.50;;;;;;484304;245;28861;-73
2024/04/08 07:32:14;;;;;;;7.17;2.17;;;17.60;88.60;;;;;;484310;245;28956;-73
2024/04/08 07:34:19;;;;;;;5.83;2.27;;;17.70;89.80;;;;;;484332;245;28949;-76
2024/04/08 07:36:16;;;;;;;8.03;2.00;;;17.70;89.40;;;;;;484031;245;28816;-73
2024/04/08 07:38:18;;;;;;;7.07;2.13;;;17.80;88.70;;;;;;484301;245;28848;-72
2024/04/08 07:40:19;;;;;;;10.23;2.70;;;17.80;88.20;;;;;;484292;245;28880;-72
2024/04/08 07:42:20;;;;;;;5.90;2.27;;;17.90;89.10;;;;;;484311;245;29280;-73
2024/04/08 07:44:21;;;;;;;5.67;2.30;;;17.90;88.60;;;;;;484334;245;29430;-74
2024/04/08 07:46:23;;;;;;;8.73;2.43;;;17.90;88.20;;;;;;484321;245;29442;-74
2024/04/08 07:48:24;;;;;;;12.83;2.80;;;18.10;87.60;;;;;;484294;245;28951;-74
2024/04/08 07:50:25;;;;;;;14.40;2.30;;;18.20;87.50;;;;;;484304;245;28841;-74
2024/04/08 07:52:29;;;;;;;7.90;2.30;;;18.20;86.80;;;;;;484313;245;28821;-74
2024/04/08 07:54:28;;;;;;;5.83;2.20;;;18.30;86.70;;;;;;484184;245;28856;-74
2024/04/08 07:56:29;;;;;;;6.47;2.03;;;18.30;86.50;;;;;;484300;245;28879;-73
2024/04/08 07:58:30;;;;;;;8.93;3.30;;;18.40;86.10;;;;;;484304;245;28868;-74
2024/04/08 08:00:31;;;;;;;11.20;2.30;;;18.50;86.70;;;;;;484327;245;29189;-75
2024/04/08 08:02:33;;;;;;;10.63;2.73;;;18.50;84.40;;;;;;484304;245;28980;-73
2024/04/08 08:04:34;;;;;;;17.17;2.60;;;18.50;84.70;;;;;;484295;245;29289;-73
2024/04/08 08:06:35;;;;;;;9.73;2.90;;;18.60;85.30;;;;;;484287;245;29370;-73
2024/04/08 08:08:36;;;;;;;11.30;2.20;;;18.60;84.70;;;;;;484295;245;28837;-73
2024/04/08 08:10:38;;;;;;;7.53;2.27;;;18.70;83.60;;;;;;484335;245;28958;-74
2024/04/08 08:12:39;;;;;;;7.33;2.77;;;18.80;83.40;;;;;;484320;245;28798;-73
2024/04/08 08:14:40;;;;;;;10.27;3.00;;;18.80;84.70;;;;;;484313;245;28833;-74
2024/04/08 08:16:42;;;;;;;7.77;2.47;;;18.90;85.30;;;;;;484279;245;28927;-74
2024/04/08 08:18:44;;;;;;;9.50;2.30;;;18.90;82.40;;;;;;484308;245;28856;-74
2024/04/08 08:20:44;;;;;;;8.83;2.90;;;19.00;83.20;;;;;;484273;245;28943;-75
2024/04/08 08:22:45;;;;;;;6.93;2.60;;;19.10;83.30;;;;;;484276;245;28803;-75
2024/04/08 08:24:46;;;;;;;8.03;2.90;;;19.10;83.70;;;;;;484296;245;29299;-74
2024/04/08 08:26:48;;;;;;;11.00;2.80;;;19.10;82.50;;;;;;484324;245;29500;-75
2024/04/08 08:28:49;;;;;;;13.20;2.80;;;19.20;84.30;;;;;;484322;245;29356;-74
2024/04/08 08:30:52;;;;;;;10.63;2.30;;;19.20;83.70;;;;;;484299;245;28856;-75
2024/04/08 08:32:54;;;;;;;14.87;2.90;;;19.30;83.50;;;;;;484155;245;28811;-74
2024/04/08 08:34:53;;;;;;;9.43;2.83;;;19.40;82.10;;;;;;484151;245;28867;-74
2024/04/08 08:36:54;;;;;;;14.83;3.00;;;19.40;81.60;;;;;;484346;245;28917;-76
2024/04/08 08:38:55;;;;;;;11.13;3.07;;;19.40;82.80;;;;;;484316;245;28799;-73
2024/04/08 08:40:56;;;;;;;9.47;3.03;;;19.50;81.50;;;;;;484270;245;28893;-73
2024/04/08 08:42:58;;;;;;;9.70;2.93;;;19.50;81.70;;;;;;484250;245;28807;-73
2024/04/08 08:44:59;;;;;;;12.43;3.17;;;19.60;82.00;;;;;;484296;245;29326;-74
2024/04/08 08:47:00;;;;;;;12.83;2.80;;;19.60;81.10;;;;;;484318;245;29368;-74
2024/04/08 08:49:02;;;;;;;8.80;2.50;;;19.70;83.00;;;;;;484316;245;29367;-74
2024/04/08 08:51:04;;;;;;;12.53;2.77;;;19.80;83.10;;;;;;484222;245;28880;-74
2024/04/08 08:53:04;;;;;;;16.33;2.90;;;19.90;82.60;;;;;;484087;245;28887;-73
2024/04/08 08:55:05;;;;;;;5.30;2.20;;;20.00;81.30;;;;;;484281;245;28812;-74
2024/04/08 08:57:06;;;;;;;7.53;2.30;;;20.00;80.80;;;;;;484302;245;28881;-74
2024/04/08 08:59:08;;;;;;;8.50;3.00;;;20.20;81.10;;;;;;484309;245;28904;-73
2024/04/08 09:01:09;;;;;;;18.10;2.40;;;20.20;79.60;;;;;;484283;245;28900;-74
2024/04/08 09:03:10;;;;;;;12.80;3.03;;;20.30;79.60;;;;;;484307;245;28888;-75
2024/04/08 09:05:11;;;;;;;10.13;2.83;;;20.30;79.80;;;;;;484305;245;29280;-73
2024/04/08 09:07:13;;;;;;;12.23;2.30;;;20.30;78.70;;;;;;484300;245;29344;-73
2024/04/08 09:09:14;;;;;;;12.50;2.97;;;20.40;79.50;;;;;;484310;245;29263;-74
2024/04/08 09:11:16;;;;;;;16.27;2.87;;;20.50;79.20;;;;;;484312;245;28837;-74
2024/04/08 09:13:17;;;;;;;12.43;2.80;;;20.50;79.60;;;;;;484319;245;28877;-74
2024/04/08 09:15:18;;;;;;;7.73;2.23;;;20.60;81.00;;;;;;484331;245;28808;-74
2024/04/08 09:17:19;;;;;;;9.33;2.77;;;20.60;80.40;;;;;;484287;245;28976;-74
2024/04/08 09:19:20;;;;;;;16.80;3.27;;;20.70;80.60;;;;;;484173;245;28807;-73
2024/04/08 09:21:22;;;;;;;8.03;2.67;;;20.80;78.90;;;;;;484293;245;28877;-74
2024/04/08 09:23:23;;;;;;;9.70;2.57;;;20.90;78.90;;;;;;484307;245;28936;-74
2024/04/08 09:25:24;;;;;;;13.53;2.53;;;21.10;80.00;;;;;;484316;245;29359;-74
2024/04/08 09:27:25;;;;;;;6.23;2.40;;;21.10;78.60;;;;;;484341;245;29329;-74
2024/04/08 09:29:27;;;;;;;6.63;2.50;;;21.10;77.30;;;;;;484257;245;29415;-76
2024/04/08 09:31:28;;;;;;;9.70;3.30;;;21.10;77.80;;;;;;484376;245;29029;-74
2024/04/08 09:33:29;;;;;;;9.37;3.07;;;21.20;77.20;;;;;;484342;245;28964;-74
2024/04/08 09:35:30;;;;;;;8.40;2.77;;;21.30;77.50;;;;;;484342;245;28908;-74
2024/04/08 09:37:32;;;;;;;11.10;2.63;;;21.30;77.20;;;;;;484345;245;28885;-73
2024/04/08 09:39:33;;;;;;;8.20;2.53;;;21.30;78.00;;;;;;484361;245;28846;-76
2024/04/08 09:41:34;;;;;;;13.63;2.87;;;21.30;77.60;;;;;;484362;245;28806;-74
2024/04/08 09:43:35;;;;;;;10.00;2.67;;;21.30;76.90;;;;;;484355;245;28861;-74
2024/04/08 09:45:37;;;;;;;8.30;2.77;;;21.30;77.70;;;;;;484355;245;28815;-74
2024/04/08 09:47:38;;;;;;;9.43;2.50;;;21.40;77.50;;;;;;484373;245;29366;-74
2024/04/08 09:49:39;;;;;;;16.83;3.27;;;21.60;76.20;;;;;;484365;245;29422;-75
2024/04/08 09:51:40;;;;;;;11.27;2.70;;;21.70;75.10;;;;;;484240;245;29285;-74
2024/04/08 09:53:42;;;;;;;8.37;2.70;;;21.80;75.50;;;;;;484342;245;28856;-74
2024/04/08 09:55:43;;;;;;;6.53;2.30;;;21.90;77.00;;;;;;484335;245;28837;-74
2024/04/08 09:57:44;;;;;;;13.23;2.73;;;22.00;75.50;;;;;;484382;245;28816;-74
2024/04/08 09:59:45;;;;;;;11.43;3.33;;;22.00;76.40;;;;;;484351;245;28929;-75
2024/04/08 10:01:47;;;;;;;11.13;2.70;;;22.00;77.20;;;;;;484308;245;28801;-74
2024/04/08 10:03:48;;;;;;;13.20;3.30;;;21.90;76.60;;;;;;484296;245;28861;-74
2024/04/08 10:05:49;;;;;;;9.50;2.63;;;21.90;76.20;;;;;;484310;245;28873;-75
2024/04/08 10:07:50;;;;;;;12.37;3.23;;;21.90;75.70;;;;;;484301;245;29257;-74
2024/04/08 10:09:52;;;;;;;10.30;2.20;;;21.80;75.60;;;;;;484351;245;29318;-74
2024/04/08 10:11:53;;;;;;;4.57;2.00;;;22.00;74.20;;;;;;484296;245;28884;-74
2024/04/08 10:13:54;;;;;;;10.50;2.20;;;22.00;75.00;;;;;;484322;245;28845;-73
2024/04/08 10:15:55;;;;;;;8.10;2.20;;;22.20;76.10;;;;;;484368;245;28839;-75
2024/04/08 10:17:57;;;;;;;19.73;2.60;;;22.30;75.10;;;;;;484329;245;28806;-73
2024/04/08 10:19:58;;;;;;;14.00;2.60;;;22.40;75.50;;;;;;484311;245;28853;-74
2024/04/08 10:21:59;;;;;;;18.20;3.63;;;22.40;71.50;;;;;;484195;245;28809;-74
2024/04/08 10:24:00;;;;;;;17.40;2.90;;;22.30;71.20;;;;;;484331;245;28830;-74
2024/04/08 10:26:02;;;;;;;6.87;2.43;;;22.30;74.00;;;;;;484324;245;29309;-74
2024/04/08 10:28:03;;;;;;;18.83;2.70;;;22.20;72.70;;;;;;484266;245;29420;-74
2024/04/08 10:30:04;;;;;;;8.53;2.40;;;22.30;71.90;;;;;;484302;245;29356;-74